Time;durP1;ratioP1;P1;durP2;ratioP2;P2;SDS_P1;SDS_P2;PMS_P1;PMS_P2;Temp;Humidity;BMP_temperature;BMP_pressure;BME280_temperature;BME280_humidity;BME280_pressure;Samples;Min_cycle;Max_cycle;Signal;HPM_P1;HPM_P2
2021/12/28 00:01:12;;;;;;;23.58;13.07;;;8.60;99.90;;;;;;5094384;28;20016;-60
2021/12/28 00:03:40;;;;;;;19.80;12.95;;;8.60;99.90;;;;;;5094180;28;20374;-61
2021/12/28 00:06:06;;;;;;;20.88;12.55;;;8.60;99.90;;;;;;5094393;28;20020;-60
2021/12/28 00:08:32;;;;;;;23.85;12.35;;;8.50;99.90;;;;;;5075990;28;20099;-60
2021/12/28 00:10:58;;;;;;;22.23;12.70;;;8.50;99.90;;;;;;5094099;28;20030;-61
2021/12/28 00:13:25;;;;;;;20.00;12.68;;;8.50;99.90;;;;;;5093933;28;20020;-61
2021/12/28 00:18:25;;;;;;;24.27;12.55;;;8.40;99.90;;;;;;5094145;28;20380;-60
2021/12/28 00:20:54;;;;;;;22.05;12.32;;;8.40;99.90;;;;;;5094023;28;20028;-61
2021/12/28 00:23:26;;;;;;;22.58;12.77;;;8.40;99.90;;;;;;5093227;28;20040;-60
2021/12/28 00:25:53;;;;;;;23.05;12.43;;;8.30;99.90;;;;;;5093924;28;20020;-60
2021/12/28 00:28:26;;;;;;;22.95;12.77;;;8.30;99.90;;;;;;5093921;28;20024;-60
2021/12/28 00:30:52;;;;;;;20.10;13.27;;;8.20;99.90;;;;;;5075100;28;20039;-61
2021/12/28 00:33:20;;;;;;;22.90;12.73;;;8.20;99.90;;;;;;5093785;28;20484;-61
2021/12/28 00:35:46;;;;;;;20.95;12.25;;;8.20;99.90;;;;;;5093655;28;20036;-60
2021/12/28 00:38:18;;;;;;;19.90;13.23;;;8.10;99.90;;;;;;5075411;28;20126;-61
2021/12/28 00:40:44;;;;;;;20.42;12.02;;;8.10;99.90;;;;;;5093794;28;20020;-61
2021/12/28 00:43:09;;;;;;;21.52;13.27;;;8.10;99.90;;;;;;5093681;28;20032;-60
2021/12/28 00:45:35;;;;;;;21.80;11.80;;;8.00;99.90;;;;;;5093246;28;20071;-60
2021/12/28 00:48:00;;;;;;;26.77;11.73;;;8.00;99.90;;;;;;5093599;28;20036;-60
2021/12/28 00:50:27;;;;;;;23.67;12.32;;;8.00;99.90;;;;;;5093228;28;20036;-60
2021/12/28 00:52:55;;;;;;;24.25;10.85;;;7.90;99.90;;;;;;5093407;28;20028;-60
2021/12/28 00:55:21;;;;;;;23.08;10.93;;;7.90;99.90;;;;;;5093458;28;20030;-60
2021/12/28 00:57:47;;;;;;;24.38;10.00;;;7.90;99.90;;;;;;5093267;28;20028;-60
2021/12/28 01:00:18;;;;;;;19.88;10.32;;;7.80;99.90;;;;;;5074925;28;20024;-60
2021/12/28 01:02:44;;;;;;;24.83;10.32;;;7.80;99.90;;;;;;5093223;28;20487;-61
2021/12/28 01:05:11;;;;;;;24.67;10.73;;;7.80;99.90;;;;;;5092949;28;20027;-61
2021/12/28 01:07:36;;;;;;;24.38;9.70;;;7.80;99.90;;;;;;5093148;28;20543;-60
2021/12/28 01:10:04;;;;;;;17.48;8.43;;;7.80;99.90;;;;;;5093359;28;20036;-61
2021/12/28 01:12:30;;;;;;;24.42;9.10;;;7.80;99.90;;;;;;5092947;28;20031;-60
2021/12/28 01:14:56;;;;;;;18.65;9.05;;;7.90;99.90;;;;;;5092778;28;20036;-60
2021/12/28 01:17:21;;;;;;;17.83;8.70;;;7.80;99.90;;;;;;5092896;28;20035;-60
2021/12/28 01:19:47;;;;;;;24.20;10.02;;;7.80;99.90;;;;;;5092791;28;20035;-60
2021/12/28 01:22:12;;;;;;;19.27;10.07;;;7.80;99.90;;;;;;5078596;28;20039;-60
2021/12/28 01:24:38;;;;;;;23.15;10.93;;;7.80;99.90;;;;;;5072454;28;20045;-60
2021/12/28 01:27:04;;;;;;;21.33;10.25;;;7.80;99.90;;;;;;5083530;28;20028;-60
2021/12/28 01:29:29;;;;;;;23.15;10.35;;;7.70;99.90;;;;;;5074505;28;20093;-60
2021/12/28 01:31:55;;;;;;;17.80;9.70;;;7.70;99.90;;;;;;5092927;28;20472;-60
2021/12/28 01:34:20;;;;;;;24.13;11.23;;;7.70;99.90;;;;;;5091746;28;20031;-60
2021/12/28 01:36:46;;;;;;;26.25;10.40;;;7.70;99.90;;;;;;5092508;28;20039;-60
2021/12/28 01:39:12;;;;;;;20.85;11.05;;;7.70;99.90;;;;;;5092563;28;20020;-60
2021/12/28 01:41:39;;;;;;;21.15;10.30;;;7.70;99.90;;;;;;5074332;28;20034;-60
2021/12/28 01:44:08;;;;;;;33.42;13.77;;;7.70;99.90;;;;;;5092454;28;20389;-60
2021/12/28 01:46:34;;;;;;;18.17;10.97;;;7.70;99.90;;;;;;5092103;28;20028;-60
2021/12/28 01:49:01;;;;;;;19.60;9.32;;;7.70;99.90;;;;;;5092146;28;20377;-60
2021/12/28 01:51:27;;;;;;;23.20;9.93;;;7.80;99.90;;;;;;5092320;28;20032;-60
2021/12/28 01:53:56;;;;;;;26.88;10.55;;;7.70;99.90;;;;;;5092311;28;20388;-60
2021/12/28 01:56:37;;;;;;;27.13;10.05;;;7.70;99.90;;;;;;5092326;28;20019;-61
2021/12/28 01:59:03;;;;;;;23.77;9.75;;;7.70;99.90;;;;;;5092400;28;20039;-61
2021/12/28 02:01:29;;;;;;;20.65;9.90;;;7.70;99.90;;;;;;5091867;28;20391;-60
2021/12/28 02:03:54;;;;;;;18.17;8.85;;;7.70;99.90;;;;;;5092074;28;20468;-60
2021/12/28 02:06:22;;;;;;;24.88;9.20;;;7.70;99.90;;;;;;5092088;28;20085;-60
2021/12/28 02:08:47;;;;;;;28.48;9.85;;;7.70;99.90;;;;;;5092006;28;20047;-60
2021/12/28 02:11:14;;;;;;;23.75;8.45;;;7.70;99.90;;;;;;5074181;28;20058;-61
2021/12/28 02:13:40;;;;;;;15.32;8.43;;;7.70;99.90;;;;;;5092011;28;20024;-60
2021/12/28 02:16:06;;;;;;;27.48;8.55;;;7.60;99.90;;;;;;5091606;28;20392;-60
2021/12/28 02:18:34;;;;;;;20.30;7.35;;;7.60;99.90;;;;;;5092113;28;20024;-60
2021/12/28 02:21:02;;;;;;;17.88;7.53;;;7.60;99.90;;;;;;5092010;28;20051;-60
2021/12/28 02:23:28;;;;;;;21.40;7.88;;;7.60;99.90;;;;;;5073870;28;20073;-60
2021/12/28 02:25:54;;;;;;;15.77;7.38;;;7.60;99.90;;;;;;5091838;28;20015;-60
2021/12/28 02:28:20;;;;;;;24.73;8.35;;;7.60;99.90;;;;;;5073863;28;20495;-60
2021/12/28 02:30:49;;;;;;;17.60;7.10;;;7.60;99.90;;;;;;5091781;28;20063;-60
2021/12/28 02:33:17;;;;;;;20.20;8.40;;;7.60;99.90;;;;;;5091610;28;20024;-60
2021/12/28 02:35:43;;;;;;;29.90;8.27;;;7.60;99.90;;;;;;5091969;28;20121;-60
2021/12/28 02:38:10;;;;;;;25.02;7.72;;;7.60;99.90;;;;;;5091788;28;20574;-60
2021/12/28 02:40:39;;;;;;;23.08;7.82;;;7.60;99.90;;;;;;5091818;28;20043;-60
2021/12/28 02:43:06;;;;;;;29.67;9.98;;;7.60;99.90;;;;;;5073451;28;20031;-60
2021/12/28 02:45:36;;;;;;;21.92;6.85;;;7.50;99.90;;;;;;5074236;28;20031;-60
2021/12/28 02:48:02;;;;;;;;;;;7.60;99.90;;;;;;5096336;28;20384;-60
2021/12/28 02:50:36;;;;;;;27.60;6.97;;;7.50;99.90;;;;;;5095607;28;19908;-60
2021/12/28 02:53:02;;;;;;;13.65;7.00;;;7.50;99.90;;;;;;5095712;28;20487;-60
2021/12/28 02:55:31;;;;;;;18.00;6.95;;;7.50;99.90;;;;;;5095501;28;20029;-60
2021/12/28 02:58:03;;;;;;;21.42;6.22;;;7.50;99.90;;;;;;5095691;28;20031;-60
2021/12/28 03:00:48;;;;;;;23.50;6.72;;;7.50;99.90;;;;;;5095566;28;20392;-61
2021/12/28 03:03:23;;;;;;;17.58;5.78;;;7.50;99.90;;;;;;5095218;28;20020;-60
2021/12/28 03:05:51;;;;;;;22.23;7.60;;;7.50;99.90;;;;;;5095257;28;20471;-61
2021/12/28 03:08:19;;;;;;;30.42;7.00;;;7.50;99.90;;;;;;5095325;28;20048;-60
2021/12/28 03:10:46;;;;;;;20.80;6.45;;;7.50;99.90;;;;;;5095361;28;20031;-60
2021/12/28 03:13:17;;;;;;;19.73;7.28;;;7.50;99.90;;;;;;5095543;28;20028;-60
2021/12/28 03:15:43;;;;;;;22.48;5.53;;;7.50;99.90;;;;;;5095245;28;20020;-61
2021/12/28 03:18:08;;;;;;;15.02;5.63;;;7.40;99.90;;;;;;5095618;28;20028;-60
2021/12/28 03:20:34;;;;;;;22.13;5.88;;;7.40;99.90;;;;;;5095154;28;20032;-60
2021/12/28 03:23:00;;;;;;;15.82;5.07;;;7.40;99.90;;;;;;5094969;28;20024;-60
2021/12/28 03:25:25;;;;;;;21.27;6.38;;;7.40;99.90;;;;;;5095092;28;20028;-60
2021/12/28 03:27:51;;;;;;;18.00;6.40;;;7.40;99.90;;;;;;5094983;28;20056;-61
2021/12/28 03:30:17;;;;;;;22.85;6.78;;;7.40;99.90;;;;;;5095339;28;20103;-61
2021/12/28 03:32:44;;;;;;;24.00;5.97;;;7.40;99.90;;;;;;5094853;28;20028;-60
2021/12/28 03:35:12;;;;;;;25.02;6.43;;;7.50;99.90;;;;;;5094706;28;20028;-60
2021/12/28 03:37:39;;;;;;;21.67;6.97;;;7.50;99.90;;;;;;5094853;28;20023;-61
2021/12/28 03:40:08;;;;;;;17.15;5.70;;;7.40;99.90;;;;;;5078880;28;20081;-61
2021/12/28 03:42:33;;;;;;;15.25;5.28;;;7.50;99.90;;;;;;5074570;28;20136;-60
2021/12/28 03:44:59;;;;;;;19.30;6.32;;;7.40;99.90;;;;;;5088902;28;20099;-61
2021/12/28 03:47:25;;;;;;;18.00;6.63;;;7.40;99.90;;;;;;5094610;28;20035;-60
2021/12/28 03:49:50;;;;;;;21.23;7.40;;;7.40;99.90;;;;;;5094238;28;20040;-60
2021/12/28 03:52:16;;;;;;;17.10;5.75;;;7.40;99.90;;;;;;5094553;28;20020;-60
2021/12/28 03:54:41;;;;;;;17.50;5.72;;;7.40;99.90;;;;;;5094541;28;20054;-60
2021/12/28 03:57:07;;;;;;;18.33;7.03;;;7.40;99.90;;;;;;5093541;28;20028;-60
2021/12/28 03:59:33;;;;;;;23.15;6.07;;;7.40;99.90;;;;;;5076555;28;20043;-60
2021/12/28 04:01:58;;;;;;;16.02;6.13;;;7.40;99.90;;;;;;5076344;28;20042;-61
2021/12/28 04:04:24;;;;;;;22.25;5.90;;;7.40;99.90;;;;;;5094074;28;20437;-61
2021/12/28 04:06:50;;;;;;;23.17;7.38;;;7.40;99.90;;;;;;5094252;28;20103;-61
2021/12/28 04:09:23;;;;;;;16.73;6.28;;;7.40;99.90;;;;;;5094764;28;20525;-60
2021/12/28 04:11:49;;;;;;;24.10;7.65;;;7.40;99.90;;;;;;5094279;28;20077;-60
2021/12/28 04:14:15;;;;;;;17.17;6.07;;;7.30;99.90;;;;;;5093948;28;20095;-60
2021/12/28 04:16:42;;;;;;;20.27;7.55;;;7.30;99.90;;;;;;5093954;28;20103;-60
2021/12/28 04:19:08;;;;;;;14.95;6.65;;;7.30;99.90;;;;;;5094173;28;20024;-60
2021/12/28 04:21:35;;;;;;;19.67;6.78;;;7.30;99.90;;;;;;5075948;28;20024;-61
2021/12/28 04:24:01;;;;;;;24.83;6.78;;;7.40;99.90;;;;;;5093766;28;20116;-60
2021/12/28 04:26:28;;;;;;;16.45;5.90;;;7.30;99.90;;;;;;5093766;28;20035;-60
2021/12/28 04:28:54;;;;;;;18.42;6.93;;;7.40;99.90;;;;;;5093927;28;20027;-60
2021/12/28 04:31:22;;;;;;;19.30;6.40;;;7.40;99.90;;;;;;5093749;28;20099;-61
2021/12/28 04:33:48;;;;;;;23.98;5.95;;;7.40;99.90;;;;;;5093648;28;20103;-60
2021/12/28 04:36:15;;;;;;;20.10;6.97;;;7.50;99.90;;;;;;5075558;28;20111;-60
2021/12/28 04:38:43;;;;;;;22.38;7.28;;;7.50;99.90;;;;;;5094028;28;20039;-60
2021/12/28 04:41:10;;;;;;;20.55;6.30;;;7.50;99.90;;;;;;5093640;28;20012;-60
2021/12/28 04:43:36;;;;;;;20.75;6.05;;;7.50;99.90;;;;;;5093426;28;20062;-60
2021/12/28 04:46:02;;;;;;;19.00;6.03;;;7.50;99.90;;;;;;5093142;28;20020;-60
2021/12/28 04:48:28;;;;;;;20.08;6.28;;;7.50;99.90;;;;;;5093336;28;20035;-61
2021/12/28 04:50:54;;;;;;;21.75;8.13;;;7.60;99.90;;;;;;5093292;28;20032;-60
2021/12/28 04:53:19;;;;;;;18.27;6.25;;;7.60;99.90;;;;;;5075161;28;20034;-61
2021/12/28 04:55:49;;;;;;;21.73;6.50;;;7.60;99.90;;;;;;5093395;28;20093;-60
2021/12/28 04:58:15;;;;;;;17.13;6.13;;;7.60;99.90;;;;;;5093269;28;20062;-60
2021/12/28 05:00:44;;;;;;;20.90;5.60;;;7.60;99.90;;;;;;5093275;28;20510;-60
2021/12/28 05:03:10;;;;;;;26.70;6.38;;;7.60;99.90;;;;;;5093146;28;20084;-60
2021/12/28 05:05:39;;;;;;;17.98;5.75;;;7.60;99.90;;;;;;5093034;28;20043;-60
2021/12/28 05:08:05;;;;;;;20.13;5.80;;;7.60;99.90;;;;;;5058551;28;20067;-60
2021/12/28 05:10:31;;;;;;;20.45;6.00;;;7.60;99.90;;;;;;5092941;28;20526;-60
2021/12/28 05:12:57;;;;;;;18.08;5.47;;;7.70;99.90;;;;;;5093507;28;20060;-60
2021/12/28 05:15:23;;;;;;;21.20;6.10;;;7.70;99.90;;;;;;5092805;28;20067;-60
2021/12/28 05:17:48;;;;;;;18.90;5.70;;;7.70;99.90;;;;;;5092927;28;20066;-60
2021/12/28 05:20:14;;;;;;;22.98;6.45;;;7.70;99.90;;;;;;5092817;28;20085;-60
2021/12/28 05:22:39;;;;;;;20.85;5.97;;;7.70;99.90;;;;;;5092984;28;20028;-61
2021/12/28 05:25:05;;;;;;;26.40;7.13;;;7.70;99.90;;;;;;5092543;28;20070;-60
2021/12/28 05:27:31;;;;;;;27.98;5.90;;;7.70;99.90;;;;;;5092595;28;20085;-60
2021/12/28 05:30:12;;;;;;;20.08;5.20;;;7.70;99.90;;;;;;5092656;28;20040;-60
2021/12/28 05:32:38;;;;;;;19.15;5.25;;;7.70;99.90;;;;;;5092844;28;20514;-60
2021/12/28 05:35:06;;;;;;;20.20;5.10;;;7.70;99.90;;;;;;5092455;28;20063;-60
2021/12/28 05:37:45;;;;;;;25.20;6.65;;;7.70;99.90;;;;;;5092458;28;20031;-60
2021/12/28 05:40:12;;;;;;;17.20;5.32;;;7.70;99.90;;;;;;5092758;28;20042;-60
2021/12/28 05:42:37;;;;;;;18.48;4.80;;;7.70;99.90;;;;;;5092560;28;20020;-60
2021/12/28 05:45:05;;;;;;;19.10;5.68;;;7.80;99.90;;;;;;5092440;28;20508;-60
2021/12/28 05:47:30;;;;;;;15.52;5.10;;;7.80;99.90;;;;;;5092435;28;20043;-60
2021/12/28 05:49:56;;;;;;;16.02;4.90;;;7.80;99.90;;;;;;5092341;28;20480;-61
2021/12/28 05:52:22;;;;;;;25.98;6.65;;;7.80;99.90;;;;;;5092209;28;20059;-60
2021/12/28 05:54:47;;;;;;;22.10;6.15;;;7.80;99.90;;;;;;5092117;28;20533;-60
2021/12/28 05:57:13;;;;;;;18.88;5.22;;;7.80;99.90;;;;;;5092252;28;20020;-61
2021/12/28 05:59:39;;;;;;;14.20;4.85;;;7.80;99.90;;;;;;5092242;28;20107;-60
2021/12/28 06:02:05;;;;;;;26.02;5.28;;;7.80;99.90;;;;;;5092246;28;20035;-61
2021/12/28 06:04:31;;;;;;;19.48;4.70;;;7.80;99.90;;;;;;5074024;28;20035;-61
2021/12/28 06:06:56;;;;;;;20.33;5.80;;;7.90;99.90;;;;;;5092056;28;20392;-60
2021/12/28 06:09:22;;;;;;;21.10;6.05;;;7.90;99.90;;;;;;5091928;28;20035;-61
2021/12/28 06:11:47;;;;;;;22.90;6.63;;;7.90;99.90;;;;;;5092146;28;20090;-60
2021/12/28 06:14:13;;;;;;;22.65;4.55;;;8.00;99.90;;;;;;5091904;28;20031;-60
2021/12/28 06:16:39;;;;;;;23.50;4.50;;;8.00;99.90;;;;;;5091991;28;20039;-60
2021/12/28 06:19:05;;;;;;;22.73;4.68;;;8.00;99.90;;;;;;5092024;28;20101;-60
2021/12/28 06:21:32;;;;;;;20.30;4.80;;;8.00;99.90;;;;;;5090458;28;20500;-60
2021/12/28 06:24:06;;;;;;;21.73;5.07;;;8.00;99.90;;;;;;5091585;28;20055;-61
2021/12/28 06:26:34;;;;;;;21.08;4.57;;;8.00;99.90;;;;;;5091912;28;20023;-60
2021/12/28 06:29:01;;;;;;;17.52;4.25;;;8.00;99.90;;;;;;5091858;28;20024;-60
2021/12/28 06:31:28;;;;;;;16.83;4.55;;;8.10;99.90;;;;;;5091679;28;20385;-60
2021/12/28 06:33:58;;;;;;;21.80;4.07;;;8.10;99.90;;;;;;5091895;28;20074;-61
2021/12/28 06:36:24;;;;;;;;;;;8.10;99.90;;;;;;5073762;28;20024;-60
2021/12/28 06:38:50;;;;;;;18.73;4.25;;;8.20;99.90;;;;;;5091818;28;19911;-60
2021/12/28 06:41:33;;;;;;;19.33;4.13;;;8.20;99.90;;;;;;5085150;28;20040;-61
2021/12/28 06:44:16;;;;;;;;;;;;;;;;;;;;;
2021/12/28 06:46:42;;;;;;;21.02;4.70;;;8.30;99.90;;;;;;5080398;28;20021;-60
2021/12/28 06:49:08;;;;;;;15.77;3.60;;;8.30;99.90;;;;;;5066266;28;20046;-60
2021/12/28 06:51:33;;;;;;;21.15;4.22;;;8.30;99.90;;;;;;5073071;28;20108;-60
2021/12/28 06:53:59;;;;;;;18.42;3.15;;;8.40;99.90;;;;;;5073133;28;20467;-60
2021/12/28 06:56:24;;;;;;;21.00;4.00;;;8.40;99.90;;;;;;5072172;28;20067;-61
2021/12/28 06:58:50;;;;;;;18.10;4.05;;;8.50;99.90;;;;;;5074441;28;20024;-61
2021/12/28 07:01:16;;;;;;;17.98;3.70;;;8.50;99.90;;;;;;5073526;28;20485;-61
2021/12/28 07:03:42;;;;;;;16.00;3.72;;;8.50;99.90;;;;;;5075592;28;20024;-60
2021/12/28 07:06:07;;;;;;;15.93;4.22;;;8.50;99.90;;;;;;5083851;28;20372;-60
2021/12/28 07:08:34;;;;;;;15.63;3.65;;;8.50;99.90;;;;;;5086318;28;20530;-61
2021/12/28 07:11:00;;;;;;;15.25;3.67;;;8.50;99.90;;;;;;5082479;28;20035;-60
2021/12/28 07:13:26;;;;;;;21.02;4.18;;;8.50;99.90;;;;;;5079786;28;20024;-60
2021/12/28 07:15:51;;;;;;;16.60;3.85;;;8.50;99.90;;;;;;5080725;28;20020;-60
2021/12/28 07:18:18;;;;;;;29.00;4.97;;;8.50;99.90;;;;;;5075817;28;20484;-61
2021/12/28 07:20:43;;;;;;;15.00;4.10;;;8.40;99.90;;;;;;5073506;28;20039;-60
2021/12/28 07:23:09;;;;;;;17.13;3.70;;;8.50;99.90;;;;;;5068401;28;20051;-61
2021/12/28 07:25:35;;;;;;;14.30;4.40;;;8.50;99.90;;;;;;5072976;28;20020;-61
2021/12/28 07:28:00;;;;;;;23.33;3.80;;;8.50;99.90;;;;;;5082165;28;20131;-60
2021/12/28 07:30:26;;;;;;;19.40;3.53;;;8.50;99.90;;;;;;5056168;28;20121;-60
2021/12/28 07:32:52;;;;;;;18.77;3.10;;;8.50;99.90;;;;;;5076621;28;20423;-61
2021/12/28 07:35:17;;;;;;;11.95;3.00;;;8.50;99.90;;;;;;5078616;28;20026;-60
2021/12/28 07:37:43;;;;;;;13.98;3.58;;;8.50;99.90;;;;;;5073494;28;20487;-60
2021/12/28 07:40:09;;;;;;;19.15;4.00;;;8.50;99.90;;;;;;5080998;28;20028;-60
2021/12/28 07:42:35;;;;;;;17.65;3.05;;;8.50;99.90;;;;;;5082395;28;20480;-60
2021/12/28 07:45:05;;;;;;;13.88;3.45;;;8.50;99.90;;;;;;5078072;28;20040;-60
2021/12/28 07:47:31;;;;;;;11.80;2.85;;;8.60;99.90;;;;;;5077787;28;20032;-61
2021/12/28 07:49:57;;;;;;;12.13;3.75;;;8.60;99.90;;;;;;5092890;28;20027;-61
2021/12/28 07:52:22;;;;;;;17.95;3.13;;;8.60;99.90;;;;;;5087182;28;20032;-60
2021/12/28 07:54:48;;;;;;;17.05;3.28;;;8.70;99.90;;;;;;5073074;28;20016;-60
2021/12/28 07:57:13;;;;;;;12.18;3.10;;;8.70;99.90;;;;;;5077434;28;20024;-60
2021/12/28 07:59:50;;;;;;;13.65;2.85;;;8.70;99.90;;;;;;5057215;28;20120;-61
2021/12/28 08:02:16;;;;;;;13.73;2.67;;;8.80;99.90;;;;;;5089511;28;20071;-60
2021/12/28 08:04:41;;;;;;;14.43;2.75;;;8.80;99.90;;;;;;5074799;28;20496;-60
2021/12/28 08:07:10;;;;;;;15.63;2.70;;;8.80;99.90;;;;;;5082351;28;20028;-60
2021/12/28 08:09:48;;;;;;;12.00;3.63;;;8.90;99.90;;;;;;5087196;28;20040;-60
2021/12/28 08:13:02;;;;;;;;;;;;;;;;;;;;;
2021/12/28 08:18:43;;;;;;;12.75;2.85;;;8.90;99.90;;;;;;5060454;28;20040;-61
2021/12/28 08:21:08;;;;;;;10.40;2.72;;;9.00;99.90;;;;;;5056284;28;20024;-61
2021/12/28 08:23:34;;;;;;;9.38;2.65;;;9.00;99.90;;;;;;5093911;28;20085;-61
2021/12/28 08:25:59;;;;;;;6.97;2.10;;;9.00;99.90;;;;;;5093638;28;20555;-61
2021/12/28 08:28:25;;;;;;;12.68;2.85;;;9.00;99.90;;;;;;5093820;28;20031;-61
2021/12/28 08:30:50;;;;;;;15.85;4.15;;;9.00;99.90;;;;;;5075593;28;20036;-61
2021/12/28 08:33:16;;;;;;;9.35;2.70;;;9.00;99.90;;;;;;5092938;28;20357;-61
2021/12/28 08:35:49;;;;;;;11.18;2.83;;;9.00;99.90;;;;;;5093084;28;20450;-60
2021/12/28 08:38:15;;;;;;;10.25;2.83;;;9.00;99.90;;;;;;5085913;28;20115;-61
2021/12/28 08:40:43;;;;;;;8.85;3.67;;;9.00;99.90;;;;;;5087087;28;20115;-61
2021/12/28 08:43:10;;;;;;;9.05;2.80;;;9.00;99.90;;;;;;5092662;28;20031;-61
2021/12/28 08:45:41;;;;;;;9.23;2.83;;;9.00;99.90;;;;;;5092111;28;20059;-61
2021/12/28 08:48:10;;;;;;;9.88;2.70;;;9.10;99.90;;;;;;5092562;28;20066;-61
2021/12/28 08:50:37;;;;;;;11.53;3.30;;;9.10;99.90;;;;;;5092819;28;20118;-61
2021/12/28 08:53:02;;;;;;;10.98;3.13;;;9.10;99.90;;;;;;5093431;28;20262;-61
2021/12/28 08:55:28;;;;;;;11.38;3.10;;;9.10;99.90;;;;;;5093683;28;20103;-61
2021/12/28 08:57:54;;;;;;;12.27;4.10;;;9.10;99.90;;;;;;5092527;28;20024;-61
2021/12/28 09:00:25;;;;;;;12.90;3.30;;;9.00;99.90;;;;;;5090679;28;20024;-61
2021/12/28 09:02:54;;;;;;;8.23;2.92;;;9.10;99.90;;;;;;5088633;28;20103;-62
2021/12/28 09:05:20;;;;;;;8.85;3.50;;;9.10;99.90;;;;;;5090286;28;20026;-61
2021/12/28 09:07:46;;;;;;;9.77;3.63;;;9.10;99.90;;;;;;5084461;28;20491;-61
2021/12/28 09:10:12;;;;;;;9.95;3.55;;;9.10;99.90;;;;;;5080923;28;20106;-62
2021/12/28 09:12:38;;;;;;;8.43;3.88;;;9.10;99.90;;;;;;5064978;28;20559;-62
2021/12/28 09:15:07;;;;;;;9.95;3.20;;;9.10;99.90;;;;;;5085848;28;20035;-61
2021/12/28 09:17:35;;;;;;;6.20;3.15;;;9.10;99.90;;;;;;5088641;28;20032;-61
2021/12/28 09:20:56;;;;;;;9.07;3.70;;;9.10;99.90;;;;;;5064855;28;20365;-61
2021/12/28 09:23:21;;;;;;;11.43;3.97;;;9.20;99.90;;;;;;5064344;28;20123;-61
2021/12/28 09:26:05;;;;;;;9.60;4.35;;;9.20;99.90;;;;;;5067324;28;20106;-61
2021/12/28 09:28:38;;;;;;;9.27;4.28;;;9.20;99.90;;;;;;5082555;28;20028;-62
2021/12/28 09:31:04;;;;;;;9.73;4.28;;;9.20;99.90;;;;;;5080434;28;20479;-61
2021/12/28 09:33:40;;;;;;;12.02;5.57;;;9.20;99.90;;;;;;5065211;28;20073;-61
2021/12/28 09:36:27;;;;;;;6.78;4.10;;;9.30;99.90;;;;;;5086255;28;20028;-61
2021/12/28 09:38:52;;;;;;;10.80;4.85;;;9.30;99.90;;;;;;5071067;28;20067;-61
2021/12/28 09:41:29;;;;;;;11.98;4.65;;;9.30;99.90;;;;;;5082462;28;20041;-62
2021/12/28 09:44:13;;;;;;;16.77;5.65;;;9.30;99.90;;;;;;5083636;28;20024;-62
2021/12/28 09:46:39;;;;;;;9.35;5.10;;;9.40;99.90;;;;;;5085432;28;20054;-61
2021/12/28 09:49:05;;;;;;;9.32;4.75;;;9.40;99.90;;;;;;5082513;28;20020;-61
2021/12/28 09:51:30;;;;;;;9.43;5.28;;;9.40;99.90;;;;;;5085205;28;20150;-61
2021/12/28 09:54:02;;;;;;;9.20;4.97;;;9.40;99.90;;;;;;5090833;28;20030;-61
2021/12/28 09:56:28;;;;;;;8.38;4.05;;;9.40;99.90;;;;;;5084159;28;20502;-61
2021/12/28 09:58:53;;;;;;;8.63;4.47;;;9.50;99.90;;;;;;5085648;28;20510;-62
2021/12/28 10:01:20;;;;;;;6.85;4.60;;;9.50;99.90;;;;;;5082246;28;20468;-61
2021/12/28 10:03:46;;;;;;;7.05;4.43;;;9.60;99.90;;;;;;5084871;28;20020;-61
2021/12/28 10:06:16;;;;;;;7.85;4.85;;;9.60;99.90;;;;;;5082414;28;20017;-61
2021/12/28 10:08:42;;;;;;;;;;;9.60;99.90;;;;;;5080846;28;20430;-61
2021/12/28 10:11:08;;;;;;;9.10;4.75;;;9.60;99.90;;;;;;5090774;28;19912;-61
2021/12/28 10:13:33;;;;;;;6.95;4.65;;;9.70;99.90;;;;;;5073925;28;20024;-61
2021/12/28 10:16:07;;;;;;;4.57;4.18;;;9.70;99.90;;;;;;5091953;28;20068;-61
2021/12/28 10:21:52;;;;;;;7.75;4.78;;;9.80;99.90;;;;;;5088931;28;20361;-61
2021/12/28 10:24:34;;;;;;;6.28;4.15;;;9.80;99.90;;;;;;5091626;28;20052;-61
2021/12/28 10:27:18;;;;;;;7.05;4.00;;;9.80;99.90;;;;;;5088822;28;20023;-61
2021/12/28 10:29:43;;;;;;;6.30;4.60;;;9.90;99.90;;;;;;5081454;28;20080;-62
2021/12/28 10:32:25;;;;;;;5.22;4.57;;;9.90;99.90;;;;;;5099174;28;20024;-61
2021/12/28 10:35:04;;;;;;;12.75;9.30;;;9.90;99.90;;;;;;5107559;28;20019;-62
2021/12/28 10:37:33;;;;;;;10.15;8.40;;;9.90;99.90;;;;;;5091263;28;20103;-61
2021/12/28 10:40:00;;;;;;;7.97;4.55;;;9.90;99.90;;;;;;5097456;28;20399;-61
2021/12/28 10:42:52;;;;;;;5.35;4.65;;;10.00;99.90;;;;;;5104630;28;20433;-61
2021/12/28 10:45:20;;;;;;;5.88;4.00;;;10.00;99.90;;;;;;5095674;28;20077;-61
2021/12/28 10:48:19;;;;;;;8.32;3.63;;;10.00;99.90;;;;;;5088662;28;20472;-61
2021/12/28 10:51:01;;;;;;;5.60;3.67;;;10.10;99.90;;;;;;5087077;28;20115;-61
2021/12/28 10:53:38;;;;;;;4.53;3.45;;;10.10;99.90;;;;;;5101219;28;20027;-61
2021/12/28 10:56:08;;;;;;;4.18;3.67;;;10.10;99.90;;;;;;5098274;28;20023;-61
2021/12/28 10:58:41;;;;;;;5.95;4.10;;;10.10;99.90;;;;;;5094497;28;20016;-61
2021/12/28 11:01:44;;;;;;;4.18;3.63;;;10.20;99.90;;;;;;5073110;28;20024;-61
2021/12/28 11:04:13;;;;;;;5.40;4.20;;;10.20;99.90;;;;;;5073900;28;20376;-61
2021/12/28 11:09:31;;;;;;;5.15;3.85;;;10.20;99.90;;;;;;5111266;28;20096;-61
2021/12/28 11:11:58;;;;;;;5.93;3.78;;;10.20;99.90;;;;;;5101432;28;20486;-61
2021/12/28 11:14:27;;;;;;;3.75;3.28;;;10.30;99.90;;;;;;5104289;28;20047;-61
2021/12/28 11:16:55;;;;;;;4.47;3.42;;;10.30;99.90;;;;;;5076640;28;20365;-61
2021/12/28 11:19:26;;;;;;;6.20;4.40;;;10.40;99.90;;;;;;5111146;28;20046;-61
2021/12/28 11:21:55;;;;;;;3.53;3.22;;;10.40;99.90;;;;;;5100276;28;20023;-61
2021/12/28 11:24:40;;;;;;;5.22;3.55;;;10.40;99.90;;;;;;5104416;28;20060;-61
2021/12/28 11:30:15;;;;;;;4.07;2.97;;;10.50;99.90;;;;;;5078340;28;20058;-61
2021/12/28 11:32:40;;;;;;;6.22;3.65;;;10.50;99.90;;;;;;5101992;28;20020;-61
2021/12/28 11:35:06;;;;;;;3.75;2.85;;;10.50;99.90;;;;;;5110430;28;20065;-61
2021/12/28 11:37:32;;;;;;;4.35;2.72;;;10.50;99.90;;;;;;5094019;28;20026;-61
2021/12/28 11:40:01;;;;;;;6.75;3.47;;;10.50;99.90;;;;;;5100633;28;20055;-61
2021/12/28 11:42:32;;;;;;;4.35;2.65;;;10.50;99.90;;;;;;5103391;28;20028;-61
2021/12/28 11:45:08;;;;;;;4.10;2.67;;;10.40;99.90;;;;;;5090586;28;20037;-63
2021/12/28 11:47:34;;;;;;;3.55;3.05;;;10.40;99.90;;;;;;5075837;28;20038;-61
2021/12/28 11:50:00;;;;;;;4.65;2.95;;;10.40;99.90;;;;;;5094067;28;20020;-61
2021/12/28 11:52:26;;;;;;;5.03;3.20;;;10.40;99.90;;;;;;5085971;28;20020;-61
2021/12/28 11:54:54;;;;;;;4.43;3.30;;;10.30;99.90;;;;;;5099336;28;20030;-61
2021/12/28 11:57:23;;;;;;;6.18;4.25;;;10.30;99.90;;;;;;5092999;28;20015;-62
2021/12/28 11:59:54;;;;;;;3.97;3.10;;;10.30;99.90;;;;;;5108535;28;20115;-61
2021/12/28 12:02:19;;;;;;;3.17;2.63;;;10.30;99.90;;;;;;5084869;28;20031;-61
2021/12/28 12:04:48;;;;;;;2.45;2.25;;;10.30;99.90;;;;;;5082478;28;20268;-62
2021/12/28 12:07:16;;;;;;;3.40;2.20;;;10.30;99.90;;;;;;5110144;28;20026;-61
2021/12/28 12:09:54;;;;;;;1.88;1.55;;;10.30;99.90;;;;;;5097683;28;20051;-61
2021/12/28 12:12:33;;;;;;;2.78;1.88;;;10.40;99.90;;;;;;5103985;28;20496;-61
2021/12/28 12:14:58;;;;;;;3.27;1.70;;;10.50;99.90;;;;;;5108608;28;20072;-61
2021/12/28 12:17:37;;;;;;;1.88;1.05;;;10.50;99.90;;;;;;5096492;28;20032;-61
2021/12/28 12:20:07;;;;;;;1.47;0.73;;;10.50;99.90;;;;;;5105787;28;20097;-61
2021/12/28 12:22:39;;;;;;;2.67;0.90;;;10.50;99.90;;;;;;5104673;28;20096;-61
2021/12/28 12:25:07;;;;;;;4.10;1.00;;;10.40;99.90;;;;;;5097436;28;20044;-62
2021/12/28 12:27:52;;;;;;;6.85;1.27;;;10.30;99.90;;;;;;5109768;28;20020;-61
2021/12/28 12:30:17;;;;;;;5.95;1.70;;;10.20;99.90;;;;;;5102388;28;20207;-61
2021/12/28 12:33:07;;;;;;;8.20;1.70;;;10.00;99.90;;;;;;5100189;28;20031;-61
2021/12/28 12:35:58;;;;;;;9.68;2.92;;;10.00;99.90;;;;;;5109903;28;20020;-62
2021/12/28 12:38:24;;;;;;;8.27;2.35;;;9.90;99.90;;;;;;5093120;28;20039;-61
2021/12/28 12:41:17;;;;;;;9.88;2.17;;;9.80;99.90;;;;;;5090127;28;20020;-61
2021/12/28 12:43:57;;;;;;;12.27;2.35;;;9.80;99.90;;;;;;5089740;28;20020;-61
2021/12/28 12:46:22;;;;;;;;;;;9.70;99.90;;;;;;5093215;28;20424;-61
2021/12/28 12:48:56;;;;;;;11.00;2.13;;;9.60;99.90;;;;;;5089092;28;20379;-61
2021/12/28 12:51:22;;;;;;;13.45;2.30;;;9.60;99.90;;;;;;5093924;28;20081;-61
2021/12/28 12:53:49;;;;;;;8.80;2.80;;;9.60;99.90;;;;;;5089607;28;20422;-61
2021/12/28 12:56:18;;;;;;;13.10;2.35;;;9.60;99.90;;;;;;5090027;28;20023;-61
2021/12/28 12:58:46;;;;;;;14.27;2.27;;;9.60;99.90;;;;;;5091302;28;20031;-61
2021/12/28 13:01:27;;;;;;;11.25;2.55;;;9.60;99.90;;;;;;5066362;28;20119;-61
2021/12/28 13:03:57;;;;;;;17.63;3.10;;;9.70;99.90;;;;;;5085498;28;20027;-61
2021/12/28 13:06:41;;;;;;;10.60;2.13;;;9.70;99.90;;;;;;5084633;28;20028;-61
2021/12/28 13:09:08;;;;;;;16.45;3.05;;;9.80;99.90;;;;;;5104794;28;20031;-61
2021/12/28 13:11:35;;;;;;;17.60;2.92;;;9.80;99.90;;;;;;5092761;28;20032;-62
2021/12/28 13:14:01;;;;;;;18.77;2.72;;;10.00;99.90;;;;;;5105674;28;20036;-61